createdAt,value
2019-05-10T00:00:59.857Z,99.90
2019-05-10T00:03:21.625Z,99.90
2019-05-10T00:05:44.030Z,99.90
2019-05-10T00:08:05.549Z,99.90
2019-05-10T00:10:08.621Z,99.90
2019-05-10T00:12:14.074Z,99.90
2019-05-10T00:14:31.861Z,99.90
2019-05-10T00:16:35.507Z,99.90
2019-05-10T00:18:39.221Z,99.90
2019-05-10T00:20:42.812Z,99.90
2019-05-10T00:22:46.662Z,99.90
2019-05-10T00:25:03.354Z,99.90
2019-05-10T00:26:56.059Z,99.90
2019-05-10T00:28:59.569Z,99.90
2019-05-10T00:31:03.257Z,99.90
2019-05-10T00:33:06.877Z,99.90
2019-05-10T00:35:10.706Z,99.90
2019-05-10T00:37:14.359Z,99.90
2019-05-10T00:39:19.524Z,99.90
2019-05-10T00:41:23.498Z,99.90
2019-05-10T00:43:27.474Z,99.90
2019-05-10T00:45:31.030Z,99.90
2019-05-10T00:47:34.570Z,99.90
2019-05-10T00:49:38.250Z,99.90
2019-05-10T00:51:42.660Z,99.90
2019-05-10T00:53:46.224Z,99.90
2019-05-10T00:55:49.765Z,99.90
2019-05-10T00:57:53.564Z,99.90
2019-05-10T00:59:57.426Z,99.90
2019-05-10T01:02:01.065Z,99.90
2019-05-10T01:04:04.968Z,99.90
2019-05-10T01:06:08.580Z,99.90
2019-05-10T01:08:12.116Z,99.90
2019-05-10T01:10:15.812Z,99.90
2019-05-10T01:12:19.313Z,99.90
2019-05-10T01:14:22.973Z,99.90
2019-05-10T01:16:26.612Z,99.90
2019-05-10T01:18:30.095Z,99.90
2019-05-10T01:20:33.973Z,99.90
2019-05-10T01:22:37.661Z,99.90
2019-05-10T01:24:41.553Z,99.90
2019-05-10T01:26:45.557Z,99.90
2019-05-10T01:28:49.110Z,99.90
2019-05-10T01:30:52.688Z,99.90
2019-05-10T01:32:56.408Z,99.90
2019-05-10T01:34:59.876Z,99.90
2019-05-10T01:37:03.545Z,99.90
2019-05-10T01:39:07.338Z,99.90
2019-05-10T01:41:10.969Z,99.90
2019-05-10T01:43:14.523Z,99.90
2019-05-10T01:45:18.290Z,99.90
2019-05-10T01:47:22.538Z,99.90
2019-05-10T01:49:25.995Z,99.90
2019-05-10T01:51:29.733Z,99.90
2019-05-10T01:53:33.253Z,99.90
2019-05-10T01:55:50.966Z,99.90
2019-05-10T01:57:42.049Z,99.90
2019-05-10T01:59:45.641Z,99.90
2019-05-10T02:01:49.226Z,99.90
2019-05-10T02:03:52.850Z,99.90
2019-05-10T02:05:56.453Z,99.90
2019-05-10T02:07:59.949Z,99.90
2019-05-10T02:10:08.495Z,99.90
2019-05-10T02:12:12.022Z,99.90
2019-05-10T02:14:15.568Z,99.90
2019-05-10T02:16:19.181Z,99.90
2019-05-10T02:18:22.765Z,99.90
2019-05-10T02:20:26.325Z,99.90
2019-05-10T02:22:29.873Z,99.90
2019-05-10T02:24:33.617Z,99.90
2019-05-10T02:26:37.156Z,99.90
2019-05-10T02:28:40.696Z,99.90
2019-05-10T02:30:44.314Z,99.90
2019-05-10T02:32:48.176Z,99.90
2019-05-10T02:34:51.681Z,99.90
2019-05-10T02:36:55.482Z,99.90
2019-05-10T02:38:59.486Z,99.90
2019-05-10T02:41:03.505Z,99.90
2019-05-10T02:43:07.141Z,99.90
2019-05-10T02:45:11.532Z,99.90
2019-05-10T02:47:15.397Z,99.90
2019-05-10T02:49:19.294Z,99.90
2019-05-10T02:51:22.917Z,99.90
2019-05-10T02:53:26.527Z,99.90
2019-05-10T02:55:31.121Z,99.90
2019-05-10T02:57:36.594Z,99.90
2019-05-10T02:59:41.751Z,99.90
2019-05-10T03:01:46.138Z,99.90
2019-05-10T03:03:52.753Z,99.90
2019-05-10T03:05:57.639Z,99.90
2019-05-10T03:08:03.767Z,99.90
2019-05-10T03:10:09.932Z,99.90
2019-05-10T03:12:21.882Z,99.90
2019-05-10T03:14:28.571Z,99.90
2019-05-10T03:16:35.296Z,99.90
2019-05-10T03:18:41.572Z,99.90
2019-05-10T03:20:48.121Z,99.90
2019-05-10T03:22:53.002Z,99.90
2019-05-10T03:24:56.629Z,99.90
2019-05-10T03:27:00.167Z,99.90
2019-05-10T03:29:03.865Z,99.90
2019-05-10T03:31:07.656Z,99.90
2019-05-10T03:33:11.622Z,99.90
2019-05-10T03:35:15.647Z,99.90
2019-05-10T03:37:19.634Z,99.90
2019-05-10T03:39:23.226Z,99.90
2019-05-10T03:41:26.926Z,99.90
2019-05-10T03:43:30.590Z,99.90
2019-05-10T03:45:34.181Z,99.90
2019-05-10T03:47:38.162Z,99.90
2019-05-10T03:49:42.193Z,99.90
2019-05-10T03:51:45.739Z,99.90
2019-05-10T03:53:49.272Z,99.90
2019-05-10T03:55:53.166Z,99.90
2019-05-10T03:57:57.120Z,99.90
2019-05-10T04:00:00.961Z,99.90
2019-05-10T04:02:04.579Z,99.90
2019-05-10T04:04:09.737Z,99.90
2019-05-10T04:06:13.621Z,99.90
2019-05-10T04:08:17.190Z,99.90
2019-05-10T04:10:21.177Z,99.90
2019-05-10T04:12:24.883Z,99.90
2019-05-10T04:14:28.576Z,99.90
2019-05-10T04:16:32.069Z,99.90
2019-05-10T04:18:35.605Z,99.90
2019-05-10T04:20:39.614Z,99.90
2019-05-10T04:22:43.247Z,99.90
2019-05-10T04:24:46.799Z,99.90
2019-05-10T04:26:50.420Z,99.90
2019-05-10T04:28:53.949Z,99.90
2019-05-10T04:30:57.562Z,99.90
2019-05-10T04:33:02.427Z,99.90
2019-05-10T04:35:06.906Z,99.90
2019-05-10T04:37:10.828Z,99.90
2019-05-10T04:39:14.365Z,99.90
2019-05-10T04:41:17.903Z,99.90
2019-05-10T04:43:21.559Z,99.90
2019-05-10T04:45:25.434Z,99.90
2019-05-10T04:47:29.331Z,99.90
2019-05-10T04:49:32.885Z,99.90
2019-05-10T04:51:37.324Z,99.90
2019-05-10T04:53:40.888Z,99.90
2019-05-10T04:55:45.774Z,99.90
2019-05-10T04:57:51.247Z,99.90
2019-05-10T04:59:55.326Z,99.90
2019-05-10T05:01:58.915Z,99.90
2019-05-10T05:04:02.599Z,99.90
2019-05-10T05:06:06.217Z,99.90
2019-05-10T05:08:09.829Z,99.90
2019-05-10T05:10:13.965Z,99.90
2019-05-10T05:12:17.435Z,99.90
2019-05-10T05:14:21.116Z,99.90
2019-05-10T05:16:26.017Z,99.90
2019-05-10T05:18:29.687Z,99.90
2019-05-10T05:20:33.261Z,99.90
2019-05-10T05:22:36.732Z,99.90
2019-05-10T05:24:40.281Z,99.90
2019-05-10T05:26:43.759Z,99.90
2019-05-10T05:28:47.627Z,99.90
2019-05-10T05:30:51.270Z,99.90
2019-05-10T05:32:56.916Z,99.90
2019-05-10T05:35:00.499Z,99.90
2019-05-10T05:37:04.108Z,99.90
2019-05-10T05:39:08.646Z,99.90
2019-05-10T05:41:12.177Z,99.90
2019-05-10T05:43:15.725Z,99.90
2019-05-10T05:45:20.195Z,99.90
2019-05-10T05:47:24.105Z,99.90
2019-05-10T05:49:27.713Z,99.90
2019-05-10T05:51:31.337Z,99.90
2019-05-10T05:53:35.931Z,99.90
2019-05-10T05:55:41.150Z,99.90
2019-05-10T05:57:44.697Z,99.90
2019-05-10T05:59:49.184Z,99.90
2019-05-10T06:01:52.863Z,99.90
2019-05-10T06:04:00.121Z,99.90
2019-05-10T06:06:01.915Z,99.90
2019-05-10T06:08:21.838Z,99.90
2019-05-10T06:10:16.902Z,99.90
2019-05-10T06:12:16.321Z,99.90
2019-05-10T06:14:19.869Z,99.90
2019-05-10T06:16:23.686Z,99.90
2019-05-10T06:18:27.725Z,99.90
2019-05-10T06:20:31.729Z,99.90
2019-05-10T06:22:38.327Z,99.90
2019-05-10T06:24:40.689Z,99.90
2019-05-10T06:26:44.214Z,99.90
2019-05-10T06:28:59.696Z,99.90
2019-05-10T06:30:53.284Z,99.90
2019-05-10T06:33:00.944Z,99.90
2019-05-10T06:35:02.497Z,99.90
2019-05-10T06:37:06.144Z,99.90
2019-05-10T06:39:10.243Z,99.90
2019-05-10T06:41:17.040Z,99.90
2019-05-10T06:43:18.983Z,99.90
2019-05-10T06:45:22.696Z,99.90
2019-05-10T06:47:26.261Z,99.90
2019-05-10T06:49:29.877Z,99.90
2019-05-10T06:51:33.424Z,99.90
2019-05-10T06:53:42.250Z,99.90
2019-05-10T06:55:42.085Z,99.90
2019-05-10T06:57:50.423Z,99.90
2019-05-10T06:59:50.910Z,99.90
2019-05-10T07:01:54.453Z,99.90
2019-05-10T07:03:58.406Z,99.90
2019-05-10T07:06:01.981Z,99.90
2019-05-10T07:08:14.210Z,99.90
2019-05-10T07:10:18.786Z,99.90
2019-05-10T07:12:18.421Z,99.90
2019-05-10T07:14:25.613Z,99.90
2019-05-10T07:16:26.938Z,99.90
2019-05-10T07:18:30.473Z,99.90
2019-05-10T07:20:34.145Z,99.90
2019-05-10T07:22:37.623Z,99.90
2019-05-10T07:24:41.181Z,99.90
2019-05-10T07:26:44.730Z,99.90
2019-05-10T07:28:51.818Z,99.90
2019-05-10T07:30:54.573Z,99.90
2019-05-10T07:32:59.768Z,99.90
2019-05-10T07:35:04.352Z,99.90
2019-05-10T07:37:08.263Z,99.90
2019-05-10T07:39:12.162Z,99.90
2019-05-10T07:41:19.355Z,99.90
2019-05-10T07:43:26.619Z,99.90
2019-05-10T07:45:27.352Z,99.90
2019-05-10T07:47:32.655Z,99.90
2019-05-10T07:49:36.602Z,99.90
2019-05-10T07:51:40.986Z,99.90
2019-05-10T07:53:44.805Z,99.90
2019-05-10T07:55:48.776Z,99.90
2019-05-10T07:57:52.297Z,99.90
2019-05-10T07:59:57.540Z,99.90
2019-05-10T08:02:05.818Z,99.90
2019-05-10T08:04:08.857Z,99.90
2019-05-10T08:06:15.307Z,99.90
2019-05-10T08:08:19.194Z,99.90
2019-05-10T08:10:23.128Z,99.90
2019-05-10T08:12:28.863Z,99.90
2019-05-10T08:14:32.341Z,99.90
2019-05-10T08:16:35.881Z,99.90
2019-05-10T08:18:42.326Z,99.90
2019-05-10T08:20:53.542Z,99.90
2019-05-10T08:22:52.399Z,99.40
2019-05-10T08:24:56.559Z,98.10
2019-05-10T08:27:07.985Z,97.00
2019-05-10T08:29:07.664Z,87.00
2019-05-10T08:31:12.400Z,91.30
2019-05-10T08:33:16.423Z,88.80
2019-05-10T08:35:20.321Z,87.60
2019-05-10T08:37:31.001Z,85.70
2019-05-10T08:39:35.251Z,80.60
2019-05-10T08:41:35.930Z,77.90
2019-05-10T08:43:40.766Z,72.90
2019-05-10T08:45:49.381Z,68.50
2019-05-10T08:47:52.632Z,62.20
2019-05-10T08:50:09.363Z,62.80
2019-05-10T08:52:02.928Z,63.10
2019-05-10T08:54:06.521Z,65.50
2019-05-10T08:56:13.892Z,68.10
2019-05-10T08:58:21.633Z,70.40
2019-05-10T09:00:40.149Z,84.50
2019-05-10T09:02:29.125Z,92.70
2019-05-10T09:04:41.676Z,99.90
2019-05-10T09:06:36.530Z,99.90
2019-05-10T09:08:40.106Z,99.90
2019-05-10T09:10:43.837Z,99.90
2019-05-10T09:12:57.635Z,99.90
2019-05-10T09:15:00.680Z,99.90
2019-05-10T09:17:01.715Z,99.90
2019-05-10T09:19:04.165Z,99.90
2019-05-10T09:21:08.853Z,99.90
2019-05-10T09:23:18.664Z,99.90
2019-05-10T09:25:20.083Z,99.90
2019-05-10T09:27:29.177Z,99.90
2019-05-10T09:29:35.217Z,99.90
2019-05-10T09:31:39.385Z,99.90
2019-05-10T09:33:49.284Z,99.90
2019-05-10T09:35:51.507Z,99.90
2019-05-10T09:37:54.030Z,99.90
2019-05-10T09:40:05.917Z,99.90
2019-05-10T09:42:07.989Z,99.90
2019-05-10T09:44:08.763Z,99.90
2019-05-10T09:46:14.121Z,99.90
2019-05-10T09:48:17.742Z,99.90
2019-05-10T09:50:22.952Z,99.90
2019-05-10T09:52:26.766Z,99.90
2019-05-10T09:54:33.525Z,99.90
2019-05-10T09:56:39.522Z,99.90
2019-05-10T09:58:41.467Z,99.90
2019-05-10T10:00:48.350Z,99.90
2019-05-10T10:02:56.242Z,99.90
2019-05-10T10:04:58.639Z,99.90
2019-05-10T10:07:01.429Z,99.90
2019-05-10T10:09:07.912Z,99.90
2019-05-10T10:11:15.842Z,99.90
2019-05-10T10:13:35.710Z,99.90
2019-05-10T10:15:29.848Z,99.90
2019-05-10T10:17:30.744Z,99.90
2019-05-10T10:19:34.025Z,99.90
2019-05-10T10:21:38.885Z,99.90
2019-05-10T10:23:42.815Z,99.90
2019-05-10T10:25:48.389Z,99.90
2019-05-10T10:27:52.241Z,99.90
2019-05-10T10:29:57.328Z,99.90
2019-05-10T10:32:00.990Z,99.90
2019-05-10T10:34:07.324Z,99.90
2019-05-10T10:36:10.696Z,99.90
2019-05-10T10:38:14.456Z,99.90
2019-05-10T10:40:18.423Z,99.90
2019-05-10T10:42:22.030Z,99.90
2019-05-10T10:44:27.105Z,99.90
2019-05-10T10:46:34.070Z,99.90
2019-05-10T10:48:37.011Z,99.90
2019-05-10T10:50:44.495Z,99.90
2019-05-10T10:52:45.901Z,99.90
2019-05-10T10:54:49.860Z,99.90
2019-05-10T10:56:53.838Z,99.90
2019-05-10T10:58:58.021Z,99.90
2019-05-10T11:01:02.130Z,99.90
2019-05-10T11:03:07.600Z,99.90
2019-05-10T11:05:11.585Z,99.90
2019-05-10T11:07:15.157Z,99.20
2019-05-10T11:09:20.695Z,99.90
2019-05-10T11:11:24.369Z,99.90
2019-05-10T11:13:41.496Z,99.90
2019-05-10T11:15:36.116Z,99.90
2019-05-10T11:17:40.750Z,99.90
2019-05-10T11:19:45.875Z,99.90
2019-05-10T11:21:51.432Z,99.90
2019-05-10T11:23:54.891Z,99.90
2019-05-10T11:26:01.191Z,99.90
2019-05-10T11:28:03.989Z,99.90
2019-05-10T11:30:08.341Z,99.90
2019-05-10T11:32:16.536Z,96.50
2019-05-10T11:34:17.717Z,94.20
2019-05-10T11:36:21.565Z,95.90
2019-05-10T11:38:25.450Z,93.60
2019-05-10T11:40:32.638Z,87.30
2019-05-10T11:42:37.361Z,86.30
2019-05-10T11:44:41.501Z,81.90
2019-05-10T11:46:45.680Z,84.80
2019-05-10T11:48:51.004Z,85.90
2019-05-10T11:50:54.854Z,84.70
2019-05-10T11:53:00.856Z,87.70
2019-05-10T11:55:05.177Z,87.50
2019-05-10T11:57:13.435Z,91.20
2019-05-10T11:59:16.419Z,92.70
2019-05-10T12:01:22.243Z,88.70
2019-05-10T12:03:25.919Z,88.00
2019-05-10T12:05:31.983Z,79.00
2019-05-10T12:07:42.841Z,79.70
2019-05-10T12:09:42.446Z,75.30
2019-05-10T12:11:51.898Z,76.10
2019-05-10T12:13:56.786Z,79.20
2019-05-10T12:15:56.766Z,78.90
2019-05-10T12:18:04.562Z,73.80
2019-05-10T12:20:06.252Z,71.50
2019-05-10T12:22:15.512Z,74.00
2019-05-10T12:26:29.497Z,75.60
2019-05-10T12:28:29.063Z,74.50
2019-05-10T12:30:35.051Z,72.90
2019-05-10T12:32:54.631Z,71.10
2019-05-10T12:34:45.992Z,67.60
2019-05-10T12:36:51.975Z,68.40
2019-05-10T12:38:58.753Z,65.70
2019-05-10T12:41:05.090Z,64.70
2019-05-10T12:43:07.105Z,63.10
2019-05-10T12:45:10.961Z,60.90
2019-05-10T12:47:14.962Z,60.00
2019-05-10T12:49:21.332Z,59.00
2019-05-10T12:51:24.197Z,60.00
2019-05-10T12:53:28.126Z,58.20
2019-05-10T12:55:32.390Z,60.20
2019-05-10T12:57:36.421Z,73.20
2019-05-10T12:59:39.957Z,80.90
2019-05-10T13:01:43.717Z,89.00
2019-05-10T13:03:47.321Z,91.00
2019-05-10T13:05:52.840Z,92.00
2019-05-10T13:07:56.128Z,93.80
2019-05-10T13:10:03.748Z,95.10
2019-05-10T13:12:06.285Z,97.70
2019-05-10T13:14:10.272Z,99.90
2019-05-10T13:16:13.865Z,98.10
2019-05-10T13:18:23.095Z,96.40
2019-05-10T13:20:24.589Z,92.70
2019-05-10T13:22:36.768Z,91.90
2019-05-10T13:24:33.438Z,90.90
2019-05-10T13:26:37.454Z,90.90
2019-05-10T13:28:41.446Z,93.60
2019-05-10T13:30:45.105Z,94.60
2019-05-10T13:32:52.914Z,95.80
2019-05-10T13:34:54.086Z,97.60
2019-05-10T13:36:58.013Z,99.20
2019-05-10T13:39:02.385Z,99.90
2019-05-10T13:41:05.925Z,99.90
2019-05-10T13:43:09.498Z,99.90
2019-05-10T13:45:13.781Z,99.90
2019-05-10T13:47:17.241Z,99.90
2019-05-10T13:49:20.787Z,99.90
2019-05-10T13:51:24.341Z,99.90
2019-05-10T13:53:28.202Z,99.90
2019-05-10T13:55:32.698Z,99.90
2019-05-10T13:57:36.257Z,99.90
2019-05-10T13:59:40.354Z,99.90
2019-05-10T14:01:49.564Z,99.90
2019-05-10T14:04:00.097Z,99.90
2019-05-10T14:05:55.251Z,99.90
2019-05-10T14:07:58.975Z,99.90
2019-05-10T14:10:02.560Z,99.90
2019-05-10T14:12:06.876Z,99.90
2019-05-10T14:14:14.720Z,99.90
2019-05-10T14:16:19.676Z,99.90
2019-05-10T14:18:22.429Z,99.90
2019-05-10T14:20:27.617Z,99.90
2019-05-10T14:22:31.990Z,99.90
2019-05-10T14:24:35.890Z,99.90
2019-05-10T14:26:39.796Z,99.90
2019-05-10T14:28:47.431Z,99.90
2019-05-10T14:30:57.025Z,99.90
2019-05-10T14:32:56.587Z,99.90
2019-05-10T14:35:00.425Z,99.90
2019-05-10T14:37:04.033Z,99.90
2019-05-10T14:39:08.645Z,99.90
2019-05-10T14:41:13.415Z,99.90
2019-05-10T14:43:17.268Z,99.90
2019-05-10T14:45:21.283Z,99.90
2019-05-10T14:47:25.190Z,99.90
2019-05-10T14:49:29.780Z,99.90
2019-05-10T14:51:49.339Z,99.90
2019-05-10T14:53:38.617Z,99.90
2019-05-10T14:55:42.469Z,99.90
2019-05-10T14:57:46.273Z,99.90
2019-05-10T14:59:49.748Z,99.90
2019-05-10T15:01:53.654Z,99.90
2019-05-10T15:03:57.578Z,99.90
2019-05-10T15:06:01.732Z,99.90
2019-05-10T15:08:05.565Z,99.90
2019-05-10T15:10:09.574Z,99.90
2019-05-10T15:12:16.445Z,99.90
2019-05-10T15:14:18.716Z,99.90
2019-05-10T15:16:27.047Z,99.90
2019-05-10T15:18:27.981Z,99.90
2019-05-10T15:20:31.534Z,99.90
2019-05-10T15:22:35.564Z,99.90
2019-05-10T15:24:39.477Z,99.90
2019-05-10T15:26:44.499Z,99.90
2019-05-10T15:28:49.530Z,99.90
2019-05-10T15:30:53.134Z,99.90
2019-05-10T15:32:57.564Z,99.90
2019-05-10T15:35:06.925Z,99.90
2019-05-10T15:37:09.302Z,99.90
2019-05-10T15:39:12.196Z,99.90
2019-05-10T15:41:16.835Z,99.90
2019-05-10T15:43:21.122Z,99.90
2019-05-10T15:45:24.968Z,99.90
2019-05-10T15:47:28.501Z,99.90
2019-05-10T15:49:32.053Z,99.90
2019-05-10T15:51:36.872Z,99.90
2019-05-10T15:53:40.919Z,99.90
2019-05-10T15:55:44.454Z,99.90
2019-05-10T15:59:23.800Z,99.90
2019-05-10T15:59:56.621Z,99.90
2019-05-10T16:02:00.430Z,99.90
2019-05-10T16:04:04.334Z,99.90
2019-05-10T16:06:08.219Z,99.90
2019-05-10T16:08:13.774Z,99.90
2019-05-10T16:10:17.778Z,99.90
2019-05-10T16:12:21.701Z,99.90
2019-05-10T16:14:25.241Z,99.90
2019-05-10T16:16:30.333Z,99.90
2019-05-10T16:18:39.928Z,99.90
2019-05-10T16:20:40.137Z,99.90
2019-05-10T16:22:43.965Z,99.90
2019-05-10T16:24:47.617Z,99.90
2019-05-10T16:26:54.635Z,99.90
2019-05-10T16:29:01.664Z,99.90
2019-05-10T16:31:01.967Z,99.90
2019-05-10T16:33:09.800Z,99.90
2019-05-10T16:35:14.311Z,99.90
2019-05-10T16:37:16.470Z,99.90
2019-05-10T16:39:21.454Z,99.90
2019-05-10T16:41:26.906Z,99.90
2019-05-10T16:43:30.646Z,99.90
2019-05-10T16:45:34.513Z,99.90
2019-05-10T16:47:39.135Z,99.90
2019-05-10T16:49:47.527Z,99.90
2019-05-10T16:51:49.928Z,99.90
2019-05-10T16:53:53.788Z,99.90
2019-05-10T16:55:58.209Z,99.90
2019-05-10T16:58:02.114Z,99.90
2019-05-10T17:00:10.610Z,99.90
2019-05-10T17:02:14.817Z,99.90
2019-05-10T17:04:18.596Z,99.90
2019-05-10T17:06:22.317Z,99.90
2019-05-10T17:08:30.779Z,99.90
2019-05-10T17:10:33.081Z,99.90
2019-05-10T17:12:37.334Z,99.90
2019-05-10T17:14:41.233Z,99.90
2019-05-10T17:16:49.450Z,99.90
2019-05-10T17:18:55.114Z,99.90
2019-05-10T17:20:56.729Z,99.90
2019-05-10T17:23:08.097Z,99.90
2019-05-10T17:25:08.669Z,99.90
2019-05-10T17:27:12.549Z,99.90
2019-05-10T17:29:16.454Z,99.90
2019-05-10T17:31:20.362Z,99.90
2019-05-10T17:33:23.978Z,99.90
2019-05-10T17:35:27.862Z,99.90
2019-05-10T17:37:35.694Z,99.90
2019-05-10T17:39:37.309Z,99.90
2019-05-10T17:41:41.213Z,99.90
2019-05-10T17:43:45.333Z,99.90
2019-05-10T17:45:49.264Z,99.90
2019-05-10T17:47:53.297Z,99.90
2019-05-10T17:49:56.989Z,99.90
2019-05-10T17:52:01.472Z,99.90
2019-05-10T17:54:05.573Z,99.90
2019-05-10T17:56:09.190Z,99.90
2019-05-10T17:58:13.065Z,99.90
2019-05-10T18:00:17.501Z,99.90
2019-05-10T18:02:21.059Z,99.90
2019-05-10T18:04:24.613Z,99.90
2019-05-10T18:06:28.336Z,99.90
2019-05-10T18:08:31.913Z,99.90
2019-05-10T18:10:35.798Z,99.90
2019-05-10T18:12:39.457Z,99.90
2019-05-10T18:14:43.314Z,99.90
2019-05-10T18:16:49.960Z,99.90
2019-05-10T18:18:52.293Z,99.90
2019-05-10T18:20:56.328Z,99.90
2019-05-10T18:23:00.219Z,99.90
2019-05-10T18:25:04.065Z,99.90
2019-05-10T18:27:07.677Z,99.90
2019-05-10T18:29:11.781Z,99.90
2019-05-10T18:31:15.330Z,99.90
2019-05-10T18:33:18.947Z,99.90
2019-05-10T18:35:22.638Z,99.90
2019-05-10T18:37:27.053Z,99.90
2019-05-10T18:39:31.547Z,99.90
2019-05-10T18:41:35.513Z,99.90
2019-05-10T18:43:40.768Z,99.90
2019-05-10T18:45:44.799Z,99.90
2019-05-10T18:47:48.349Z,99.90
2019-05-10T18:49:52.141Z,99.90
2019-05-10T18:52:03.537Z,99.90
2019-05-10T18:54:01.384Z,99.90
2019-05-10T18:56:05.134Z,99.90
2019-05-10T18:58:08.683Z,99.90
2019-05-10T19:00:17.649Z,99.90
2019-05-10T19:02:19.963Z,99.90
2019-05-10T19:04:23.713Z,99.90
2019-05-10T19:06:31.115Z,99.90
2019-05-10T19:08:33.310Z,99.90
2019-05-10T19:10:37.213Z,99.90
2019-05-10T19:12:41.358Z,99.90
2019-05-10T19:14:45.437Z,99.90
2019-05-10T19:16:49.254Z,99.90
2019-05-10T19:18:56.064Z,99.90
2019-05-10T19:20:58.080Z,99.90
2019-05-10T19:23:05.046Z,99.90
2019-05-10T19:25:11.564Z,99.90
2019-05-10T19:27:12.414Z,99.90
2019-05-10T19:29:16.757Z,99.90
2019-05-10T19:31:23.061Z,99.90
2019-05-10T19:33:29.882Z,99.90
2019-05-10T19:35:35.869Z,99.90
2019-05-10T19:37:39.649Z,99.90
2019-05-10T19:39:43.481Z,99.90
2019-05-10T19:41:47.161Z,99.90
2019-05-10T19:43:56.077Z,99.90
2019-05-10T19:45:59.577Z,99.90
2019-05-10T19:48:05.588Z,99.90
2019-05-10T19:50:08.105Z,99.90
2019-05-10T19:52:12.531Z,99.90
2019-05-10T19:54:19.357Z,99.90
2019-05-10T19:56:22.057Z,99.90
2019-05-10T19:58:26.511Z,99.90
2019-05-10T20:00:31.307Z,99.90
2019-05-10T20:02:35.213Z,99.90
2019-05-10T20:04:39.732Z,99.90
2019-05-10T20:06:43.549Z,99.90
2019-05-10T20:08:47.442Z,99.90
2019-05-10T20:10:51.366Z,99.90
2019-05-10T20:12:54.951Z,99.90
2019-05-10T20:14:58.846Z,99.90
2019-05-10T20:17:02.447Z,99.90
2019-05-10T20:19:09.274Z,99.90
2019-05-10T20:21:12.338Z,99.90
2019-05-10T20:23:16.849Z,99.90
2019-05-10T20:25:20.862Z,99.90
2019-05-10T20:27:25.414Z,99.90
2019-05-10T20:29:29.374Z,99.90
2019-05-10T20:31:33.356Z,99.90
2019-05-10T20:33:38.294Z,99.90
2019-05-10T20:35:41.834Z,99.90
2019-05-10T20:38:00.126Z,99.90
2019-05-10T20:39:51.241Z,99.90
2019-05-10T20:41:55.052Z,99.90
2019-05-10T20:43:58.673Z,99.90
2019-05-10T20:46:03.119Z,99.90
2019-05-10T20:48:07.053Z,99.90
2019-05-10T20:50:12.157Z,99.90
2019-05-10T20:52:15.725Z,99.90
2019-05-10T20:54:19.345Z,99.90
2019-05-10T20:56:22.949Z,99.90
2019-05-10T20:58:26.861Z,99.90
2019-05-10T21:00:30.465Z,99.90
2019-05-10T21:02:34.590Z,99.90
2019-05-10T21:04:38.142Z,99.90
2019-05-10T21:06:41.688Z,99.90
2019-05-10T21:08:48.157Z,99.90
2019-05-10T21:10:51.837Z,99.90
2019-05-10T21:12:55.364Z,99.90
2019-05-10T21:14:59.150Z,99.90
2019-05-10T21:17:03.055Z,99.90
2019-05-10T21:19:06.770Z,99.90
2019-05-10T21:21:10.338Z,99.90
2019-05-10T21:23:14.150Z,99.90
2019-05-10T21:25:17.982Z,99.90
2019-05-10T21:27:21.531Z,99.90
2019-05-10T21:29:25.336Z,99.90
2019-05-10T21:31:28.845Z,99.90
2019-05-10T21:33:32.457Z,99.90
2019-05-10T21:35:36.206Z,99.90
2019-05-10T21:37:39.753Z,99.90
2019-05-10T21:39:43.646Z,99.90
2019-05-10T21:41:47.665Z,99.90
2019-05-10T21:43:51.135Z,99.90
2019-05-10T21:45:54.956Z,99.90
2019-05-10T21:47:58.510Z,99.90
2019-05-10T21:50:02.058Z,99.90
2019-05-10T21:52:05.949Z,99.90
2019-05-10T21:54:10.265Z,99.90
2019-05-10T21:56:14.201Z,99.90
2019-05-10T21:58:18.085Z,99.90
2019-05-10T22:00:24.576Z,99.90
2019-05-10T22:02:29.251Z,99.90
2019-05-10T22:04:32.813Z,99.90
2019-05-10T22:06:36.449Z,99.90
2019-05-10T22:08:49.079Z,99.90
2019-05-10T22:10:45.658Z,99.90
2019-05-10T22:12:49.201Z,99.90
2019-05-10T22:14:53.103Z,99.90
2019-05-10T22:16:56.650Z,99.90
2019-05-10T22:19:02.258Z,99.90
2019-05-10T22:21:07.070Z,99.90
2019-05-10T22:23:10.945Z,99.90
2019-05-10T22:25:14.601Z,99.90
2019-05-10T22:27:18.186Z,99.90
2019-05-10T22:29:21.736Z,99.90
2019-05-10T22:31:25.365Z,99.90
2019-05-10T22:33:29.166Z,99.90
2019-05-10T22:35:33.077Z,99.90
2019-05-10T22:37:36.973Z,99.90
2019-05-10T22:39:40.606Z,99.90
2019-05-10T22:41:44.414Z,99.90
2019-05-10T22:43:48.061Z,99.90
2019-05-10T22:45:52.010Z,99.90
2019-05-10T22:47:55.482Z,99.90
2019-05-10T22:49:59.073Z,99.90
2019-05-10T22:52:02.953Z,99.90
2019-05-10T22:54:06.788Z,99.90
2019-05-10T22:56:10.329Z,99.90
2019-05-10T22:58:14.682Z,99.90
2019-05-10T23:00:18.881Z,99.90
2019-05-10T23:02:22.417Z,99.90
2019-05-10T23:04:25.928Z,99.90
2019-05-10T23:06:29.657Z,99.90
2019-05-10T23:08:33.199Z,99.90
2019-05-10T23:10:36.745Z,99.90
2019-05-10T23:12:40.439Z,99.90
2019-05-10T23:14:44.821Z,99.90
2019-05-10T23:16:48.373Z,99.90
2019-05-10T23:18:52.181Z,99.90
2019-05-10T23:20:56.313Z,99.90
2019-05-10T23:22:59.876Z,99.90
2019-05-10T23:25:03.938Z,99.90
2019-05-10T23:27:08.625Z,99.90
2019-05-10T23:29:12.451Z,99.90
2019-05-10T23:31:16.215Z,99.90
2019-05-10T23:33:19.759Z,99.90
2019-05-10T23:35:23.372Z,99.90
2019-05-10T23:37:26.849Z,99.90
2019-05-10T23:39:40.295Z,99.90
2019-05-10T23:41:35.974Z,99.90
2019-05-10T23:43:40.075Z,99.90
2019-05-10T23:45:43.773Z,99.90
2019-05-10T23:47:47.298Z,99.90
2019-05-10T23:49:50.841Z,99.90
2019-05-10T23:51:54.681Z,99.90
2019-05-10T23:53:58.613Z,99.90
2019-05-10T23:56:02.237Z,99.90
2019-05-10T23:58:05.713Z,99.90
